Messwerte McCall

Temperatur

Temperatur
°C
1623790800 15.00 15.00 22
1623794400 16.00 16.00 22
1623798000 17.00 17.00 23
1623801600 18.00 18.00 22
1623805200 19.00 19.00 22
1623808800 20.00 20.00 19
1623812400 21.00 21.00 16
1623816000 22.00 22.00 13
1623819600 23.00 23.00 12
1623823200 0.00 0.00 11
1623826800 1.00 1.00
1623830400 2.00 2.00
1623834000 3.00 3.00
1623837600 4.00 4.00
1623841200 5.00 5.00 8
1623844800 6.00 6.00 6
1623848400 7.00 7.00 8
1623852000 8.00 8.00 10
1623855600 9.00 9.00 11
1623859200 10.00 10.00 13
1623862800 11.00 11.00 15
1623866400 12.00 12.00 17
1623870000 13.00 13.00 18
1623873600 14.00 14.00 19

Aktuellste Messwerte

Wettercharakter
Wetter: sonnig
Temperatur
21 °C
Feuchtigkeit
30 %
Wind
5 km/h, -
Luftdruck
1024 hPa
Messzeit: 16. Juni 2021, 16.00Datenquelle: METAR

Weitere Messstationen in der Nähe

Messstation Temperatur Entfernung
Ontario 28 °C 121 km
Stanley 25 °C 122 km
Baker 23 °C 135 km
Lowell 26.0 °C 144 km
Caldwell 25 °C 146 km
Boise 26 °C 147 km
Challis 32 °C 154 km

Wind

Windrichtung Böen Mittelwind
° km/h km/h
1623790800 15.00 14.00 - 15.00 210° 45 35
1623794400 16.00 15.00 - 16.00 200° 60 30
1623798000 17.00 16.00 - 17.00 190° 55 40
1623801600 18.00 17.00 - 18.00 210° 45 20
1623805200 19.00 18.00 - 19.00 190° 20
1623808800 20.00 19.00 - 20.00 300° 45 25
1623812400 21.00 20.00 - 21.00 340° 30 10
1623816000 22.00 21.00 - 22.00 5
1623819600 23.00 22.00 - 23.00 10° 30 20
1623823200 0.00 23.00 - 0.00 330° 15
1623826800 1.00 0.00 - 1.00
1623830400 2.00 1.00 - 2.00
1623834000 3.00 2.00 - 3.00
1623837600 4.00 3.00 - 4.00
1623841200 5.00 4.00 - 5.00 350° 10
1623844800 6.00 5.00 - 6.00 0
1623848400 7.00 6.00 - 7.00 20° 10
1623852000 8.00 7.00 - 8.00 360° 15
1623855600 9.00 8.00 - 9.00 330° 10
1623859200 10.00 9.00 - 10.00 0
1623862800 11.00 10.00 - 11.00 210° 10
1623866400 12.00 11.00 - 12.00 0
1623870000 13.00 12.00 - 13.00 270° 10
1623873600 14.00 13.00 - 14.00

Ihre Wetterstation

Fehlt Ihre Wetterstation auf unserem Portal?

Schreiben Sie an network@meteonews.ch

Klima

Wann ist es am wärmsten? Wann regnet es am wenigsten? Unsere Klimadaten geben Auskunft.